createdAt,value
2019-03-28T00:01:55.761Z,102177.09
2019-03-28T00:04:26.124Z,102176.99
2019-03-28T00:06:56.488Z,102180.13
2019-03-28T00:09:26.837Z,102177.86
2019-03-28T00:11:57.192Z,102183.88
2019-03-28T00:14:27.560Z,102183.96
2019-03-28T00:16:57.909Z,102179.17
2019-03-28T00:19:28.268Z,102179.48
2019-03-28T00:21:58.617Z,102182.27
2019-03-28T00:24:30.626Z,102182.23
2019-03-28T00:27:01.097Z,102186.33
2019-03-28T00:29:31.453Z,102173.47
2019-03-28T00:32:01.803Z,102178.53
2019-03-28T00:34:32.185Z,102178.15
2019-03-28T00:37:02.554Z,102176.97
2019-03-28T00:39:33.875Z,102181.86
2019-03-28T00:42:04.230Z,102169.59
2019-03-28T00:44:34.581Z,102165.97
2019-03-28T00:47:04.982Z,102166.28
2019-03-28T00:49:35.350Z,102167.99
2019-03-28T00:52:05.712Z,102172.73
2019-03-28T00:54:36.054Z,102160.34
2019-03-28T00:57:06.401Z,102161.47
2019-03-28T00:59:36.752Z,102169.92
2019-03-28T01:02:07.101Z,102171.97
2019-03-28T01:04:37.435Z,102167.70
2019-03-28T01:07:07.801Z,102167.16
2019-03-28T01:09:38.175Z,102170.95
2019-03-28T01:12:08.535Z,102174.98
2019-03-28T01:14:38.911Z,102172.11
2019-03-28T01:17:09.293Z,102172.98
2019-03-28T01:19:39.629Z,102179.59
2019-03-28T01:22:10.033Z,102182.74
2019-03-28T01:24:40.358Z,102171.06
2019-03-28T01:27:10.703Z,102176.14
2019-03-28T01:29:41.053Z,102167.68
2019-03-28T01:32:11.428Z,102174.67
2019-03-28T01:34:41.785Z,102173.48
2019-03-28T01:37:12.177Z,102176.91
2019-03-28T01:39:42.603Z,102169.22
2019-03-28T01:42:12.967Z,102171.50
2019-03-28T01:44:43.337Z,102174.29
2019-03-28T01:47:13.664Z,102170.55
2019-03-28T01:49:44.030Z,102170.41
2019-03-28T01:52:14.386Z,102162.66
2019-03-28T01:54:44.738Z,102167.36
2019-03-28T01:57:15.117Z,102167.58
2019-03-28T01:59:46.318Z,102170.06
2019-03-28T02:02:16.781Z,102170.68
2019-03-28T02:04:47.141Z,102169.49
2019-03-28T02:07:17.515Z,102174.73
2019-03-28T02:09:47.877Z,102169.77
2019-03-28T02:12:18.227Z,102166.79
2019-03-28T02:14:48.579Z,102166.63
2019-03-28T02:17:18.938Z,102172.55
2019-03-28T02:19:49.303Z,102167.25
2019-03-28T02:22:19.680Z,102172.71
2019-03-28T02:24:50.089Z,102168.06
2019-03-28T02:27:24.274Z,102170.45
2019-03-28T02:29:52.497Z,102170.15
2019-03-28T02:32:22.944Z,102166.66
2019-03-28T02:34:53.276Z,102164.55
2019-03-28T02:37:23.631Z,102168.28
2019-03-28T02:39:53.982Z,102161.87
2019-03-28T02:42:24.348Z,102158.87
2019-03-28T02:44:54.701Z,102154.81
2019-03-28T02:47:25.051Z,102143.70
2019-03-28T02:49:55.411Z,102136.23
2019-03-28T02:52:25.780Z,102139.94
2019-03-28T02:54:56.179Z,102132.62
2019-03-28T02:57:40.161Z,102139.94
2019-03-28T02:59:58.549Z,102139.77
2019-03-28T03:02:28.913Z,102143.30
2019-03-28T03:04:59.274Z,102141.53
2019-03-28T03:07:29.798Z,102148.11
2019-03-28T03:10:00.418Z,102151.37
2019-03-28T03:12:32.141Z,102153.48
2019-03-28T03:15:03.593Z,102157.35
2019-03-28T03:17:34.275Z,102157.62
2019-03-28T03:20:06.148Z,102158.36
2019-03-28T03:22:36.522Z,102155.41
2019-03-28T03:25:08.004Z,102157.66
2019-03-28T03:27:38.404Z,102161.76
2019-03-28T03:30:08.782Z,102169.22
2019-03-28T03:32:39.149Z,102172.66
2019-03-28T03:35:09.476Z,102168.71
2019-03-28T03:37:40.804Z,102176.04
2019-03-28T03:40:11.207Z,102179.85
2019-03-28T03:42:41.581Z,102178.13
2019-03-28T03:45:11.914Z,102181.65
2019-03-28T03:47:42.302Z,102182.72
2019-03-28T03:50:15.926Z,102188.69
2019-03-28T03:52:46.279Z,102187.60
2019-03-28T03:55:16.629Z,102186.36
2019-03-28T03:57:47.007Z,102187.98
2019-03-28T04:00:20.617Z,102188.58
2019-03-28T04:02:51.059Z,102196.95
2019-03-28T04:05:21.525Z,102191.83
2019-03-28T04:07:52.123Z,102189.87
2019-03-28T04:10:22.455Z,102187.01
2019-03-28T04:12:53.009Z,102185.61
2019-03-28T04:15:23.500Z,102188.70
2019-03-28T04:17:53.924Z,102192.14
2019-03-28T04:20:25.403Z,102189.06
2019-03-28T04:22:55.918Z,102186.14
2019-03-28T04:25:26.324Z,102187.70
2019-03-28T04:27:56.810Z,102193.06
2019-03-28T04:30:27.326Z,102192.68
2019-03-28T04:32:57.827Z,102196.78
2019-03-28T04:35:28.277Z,102193.64
2019-03-28T04:37:58.911Z,102198.73
2019-03-28T04:40:29.404Z,102195.34
2019-03-28T04:42:59.825Z,102205.25
2019-03-28T04:45:30.224Z,102209.80
2019-03-28T04:48:01.515Z,102206.98
2019-03-28T04:50:33.012Z,102217.06
2019-03-28T04:53:03.423Z,102216.35
2019-03-28T04:55:33.842Z,102228.23
2019-03-28T04:58:04.256Z,102225.88
2019-03-28T05:00:34.678Z,102224.70
2019-03-28T05:03:05.106Z,102221.02
2019-03-28T05:05:35.521Z,102221.23
2019-03-28T05:08:05.955Z,102222.37
2019-03-28T05:10:36.359Z,102226.25
2019-03-28T05:13:06.785Z,102232.01
2019-03-28T05:15:37.203Z,102233.91
2019-03-28T05:18:07.716Z,102236.52
2019-03-28T05:20:38.141Z,102233.74
2019-03-28T05:23:08.735Z,102231.41
2019-03-28T05:25:39.153Z,102233.78
2019-03-28T05:28:09.584Z,102236.23
2019-03-28T05:30:40.216Z,102241.05
2019-03-28T05:33:11.215Z,102238.33
2019-03-28T05:35:41.643Z,102240.93
2019-03-28T05:38:12.170Z,102247.44
2019-03-28T05:40:42.807Z,102248.56
2019-03-28T05:43:13.283Z,102240.05
2019-03-28T05:45:46.286Z,102246.30
2019-03-28T05:48:16.097Z,102251.42
2019-03-28T05:50:46.614Z,102260.66
2019-03-28T05:53:16.976Z,102269.88
2019-03-28T05:55:48.401Z,102270.28
2019-03-28T05:58:18.786Z,102270.70
2019-03-28T06:00:51.283Z,102272.44
2019-03-28T06:03:23.278Z,102281.23
2019-03-28T06:05:53.771Z,102286.20
2019-03-28T06:08:24.219Z,102286.06
2019-03-28T06:10:54.698Z,102291.91
2019-03-28T06:13:25.068Z,102283.82
2019-03-28T06:15:55.527Z,102291.78
2019-03-28T06:18:26.288Z,102294.59
2019-03-28T06:20:59.504Z,102297.22
2019-03-28T06:23:29.004Z,102293.59
2019-03-28T06:25:59.637Z,102292.28
2019-03-28T06:28:30.035Z,102295.81
2019-03-28T06:31:00.388Z,102287.42
2019-03-28T06:33:31.232Z,102294.63
2019-03-28T06:36:02.357Z,102304.77
2019-03-28T06:38:33.083Z,102307.08
2019-03-28T06:41:03.888Z,102305.23
2019-03-28T06:43:34.379Z,102307.58
2019-03-28T06:46:05.991Z,102308.20
2019-03-28T06:48:36.419Z,102306.66
2019-03-28T06:51:06.758Z,102314.02
2019-03-28T06:53:37.127Z,102317.34
2019-03-28T06:56:07.502Z,102321.59
2019-03-28T06:58:37.881Z,102328.34
2019-03-28T07:01:08.334Z,102330.41
2019-03-28T07:03:38.906Z,102328.39
2019-03-28T07:06:10.252Z,102333.27
2019-03-28T07:08:40.604Z,102339.28
2019-03-28T07:11:10.971Z,102339.72
2019-03-28T07:13:41.341Z,102342.53
2019-03-28T07:16:11.720Z,102348.06
2019-03-28T07:18:42.108Z,102348.13
2019-03-28T07:21:12.919Z,102347.48
2019-03-28T07:23:43.534Z,102349.96
2019-03-28T07:26:13.920Z,102353.85
2019-03-28T07:28:44.286Z,102352.22
2019-03-28T07:31:14.675Z,102354.56
2019-03-28T07:33:45.104Z,102356.73
2019-03-28T07:36:15.527Z,102365.10
2019-03-28T07:38:45.901Z,102364.99
2019-03-28T07:41:16.699Z,102369.17
2019-03-28T07:43:48.264Z,102366.38
2019-03-28T07:46:18.639Z,102365.89
2019-03-28T07:48:49.042Z,102367.53
2019-03-28T07:51:19.414Z,102370.53
2019-03-28T07:53:49.795Z,102372.96
2019-03-28T07:56:20.161Z,102385.81
2019-03-28T07:58:50.544Z,102383.03
2019-03-28T08:01:24.098Z,102381.04
2019-03-28T08:03:55.958Z,102382.77
2019-03-28T08:06:26.445Z,102376.30
2019-03-28T08:08:56.862Z,102385.78
2019-03-28T08:11:27.426Z,102385.43
2019-03-28T08:13:58.807Z,102383.44
2019-03-28T08:16:29.177Z,102372.19
2019-03-28T08:18:59.542Z,102386.52
2019-03-28T08:21:30.200Z,102382.44
2019-03-28T08:24:00.577Z,102385.66
2019-03-28T08:26:30.928Z,102380.08
2019-03-28T08:29:01.327Z,102380.69
2019-03-28T08:31:31.683Z,102376.88
2019-03-28T08:34:02.159Z,102373.99
2019-03-28T08:36:32.534Z,102374.72
2019-03-28T08:39:03.183Z,102372.09
2019-03-28T08:41:36.173Z,102379.60
2019-03-28T08:44:07.410Z,102382.33
2019-03-28T08:46:39.226Z,102387.31
2019-03-28T08:49:09.602Z,102382.50
2019-03-28T08:51:40.042Z,102376.03
2019-03-28T08:54:10.410Z,102386.98
2019-03-28T08:56:40.754Z,102388.70
2019-03-28T08:59:11.329Z,102391.56
2019-03-28T09:01:41.691Z,102398.72
2019-03-28T09:04:12.035Z,102407.28
2019-03-28T09:06:42.386Z,102408.64
2019-03-28T09:09:12.738Z,102415.30
2019-03-28T09:11:43.416Z,102409.73
2019-03-28T09:14:13.810Z,102407.23
2019-03-28T09:16:44.199Z,102404.20
2019-03-28T09:19:14.571Z,102412.23
2019-03-28T09:21:44.943Z,102407.98
2019-03-28T09:24:15.293Z,102402.17
2019-03-28T09:26:45.671Z,102410.33
2019-03-28T09:29:16.015Z,102403.31
2019-03-28T09:31:46.372Z,102404.23
2019-03-28T09:34:16.765Z,102401.34
2019-03-28T09:36:47.448Z,102399.48
2019-03-28T09:39:17.807Z,102396.81
2019-03-28T09:41:48.233Z,102396.99
2019-03-28T09:44:18.630Z,102394.91
2019-03-28T09:46:49.028Z,102399.55
2019-03-28T09:49:19.384Z,102398.29
2019-03-28T09:51:49.758Z,102397.98
2019-03-28T09:54:20.154Z,102401.98
2019-03-28T09:56:50.544Z,102402.17
2019-03-28T09:59:20.920Z,102407.59
2019-03-28T10:01:51.305Z,102411.24
2019-03-28T10:04:21.719Z,102404.14
2019-03-28T10:06:52.095Z,102409.13
2019-03-28T10:09:22.673Z,102412.86
2019-03-28T10:11:53.020Z,102415.58
2019-03-28T10:14:23.392Z,102424.02
2019-03-28T10:16:53.763Z,102424.97
2019-03-28T10:19:24.184Z,102430.89
2019-03-28T10:21:54.537Z,102431.39
2019-03-28T10:24:24.889Z,102429.95
2019-03-28T10:26:55.236Z,102431.16
2019-03-28T10:29:25.600Z,102425.75
2019-03-28T10:31:55.937Z,102424.53
2019-03-28T10:34:26.292Z,102425.16
2019-03-28T10:36:56.640Z,102428.05
2019-03-28T10:39:27.019Z,102421.72
2019-03-28T10:41:57.387Z,102420.12
2019-03-28T10:44:27.789Z,102422.25
2019-03-28T10:46:58.169Z,102423.48
2019-03-28T10:49:28.595Z,102419.38
2019-03-28T10:51:58.995Z,102413.33
2019-03-28T10:54:29.354Z,102423.16
2019-03-28T10:57:12.984Z,102422.06
2019-03-28T10:59:31.836Z,102427.68
2019-03-28T11:02:02.199Z,102426.66
2019-03-28T11:04:32.565Z,102429.13
2019-03-28T11:07:03.890Z,102429.75
2019-03-28T11:09:34.664Z,102439.54
2019-03-28T11:12:05.205Z,102440.91
2019-03-28T11:14:35.563Z,102437.16
2019-03-28T11:17:06.154Z,102435.34
2019-03-28T11:19:36.552Z,102444.25
2019-03-28T11:22:08.010Z,102447.86
2019-03-28T11:24:38.353Z,102438.77
2019-03-28T11:27:08.732Z,102442.58
2019-03-28T11:29:39.129Z,102447.57
2019-03-28T11:32:09.512Z,102450.63
2019-03-28T11:34:40.825Z,102451.80
2019-03-28T11:37:24.931Z,102447.34
2019-03-28T11:39:43.374Z,102446.77
2019-03-28T11:42:13.801Z,102442.55
2019-03-28T11:44:44.175Z,102439.22
2019-03-28T11:47:14.533Z,102432.77
2019-03-28T11:49:45.001Z,102432.12
2019-03-28T11:52:15.405Z,102437.44
2019-03-28T11:54:45.753Z,102432.63
2019-03-28T11:57:16.400Z,102435.35
2019-03-28T11:59:46.761Z,102435.81
2019-03-28T12:02:20.298Z,102439.50
2019-03-28T12:04:49.201Z,102436.22
2019-03-28T12:07:19.559Z,102440.91
2019-03-28T12:09:49.954Z,102436.39
2019-03-28T12:12:20.301Z,102444.42
2019-03-28T12:14:50.756Z,102449.81
2019-03-28T12:17:21.335Z,102436.27
2019-03-28T12:19:51.687Z,102434.63
2019-03-28T12:22:23.121Z,102439.44
2019-03-28T12:24:53.486Z,102438.44
2019-03-28T12:27:23.927Z,102442.31
2019-03-28T12:29:54.286Z,102442.35
2019-03-28T12:32:24.623Z,102437.22
2019-03-28T12:34:54.989Z,102439.28
2019-03-28T12:37:26.369Z,102452.75
2019-03-28T12:39:59.873Z,102460.23
2019-03-28T12:42:28.802Z,102461.34
2019-03-28T12:45:00.553Z,102464.85
2019-03-28T12:47:41.724Z,102462.83
2019-03-28T12:50:06.000Z,102461.74
2019-03-28T12:52:37.294Z,102462.72
2019-03-28T12:55:07.742Z,102464.95
2019-03-28T12:57:38.454Z,102472.03
2019-03-28T13:00:10.158Z,102477.22
2019-03-28T13:02:40.524Z,102476.02
2019-03-28T13:05:10.882Z,102469.41
2019-03-28T13:07:41.257Z,102476.81
2019-03-28T13:10:11.725Z,102473.11
2019-03-28T13:12:42.098Z,102482.62
2019-03-28T13:15:13.025Z,102480.86
2019-03-28T13:17:43.987Z,102483.01
2019-03-28T13:20:14.342Z,102489.41
2019-03-28T13:22:44.747Z,102487.02
2019-03-28T13:25:15.114Z,102486.25
2019-03-28T13:27:46.007Z,102485.88
2019-03-28T13:30:16.486Z,102491.20
2019-03-28T13:32:46.858Z,102485.22
2019-03-28T13:35:17.202Z,102487.48
2019-03-28T13:37:47.537Z,102487.52
2019-03-28T13:40:17.884Z,102485.05
2019-03-28T13:42:48.272Z,102481.75
2019-03-28T13:45:20.340Z,102485.77
2019-03-28T13:47:54.170Z,102481.38
2019-03-28T13:50:22.815Z,102475.61
2019-03-28T13:52:53.572Z,102472.63
2019-03-28T13:55:24.239Z,102475.86
2019-03-28T13:57:54.603Z,102470.17
2019-03-28T14:00:30.030Z,102471.67
2019-03-28T14:03:00.374Z,102470.50
2019-03-28T14:05:30.772Z,102469.05
2019-03-28T14:08:01.202Z,102467.52
2019-03-28T14:10:31.551Z,102465.19
2019-03-28T14:13:01.904Z,102462.23
2019-03-28T14:15:32.276Z,102463.05
2019-03-28T14:18:02.635Z,102471.38
2019-03-28T14:20:34.286Z,102468.52
2019-03-28T14:23:04.662Z,102478.06
2019-03-28T14:25:35.008Z,102479.43
2019-03-28T14:28:05.362Z,102480.48
2019-03-28T14:30:35.735Z,102482.23
2019-03-28T14:33:11.663Z,102487.89
2019-03-28T14:35:39.150Z,102487.66
2019-03-28T14:38:09.756Z,102485.35
2019-03-28T14:40:40.118Z,102491.33
2019-03-28T14:43:11.584Z,102488.79
2019-03-28T14:45:41.957Z,102485.81
2019-03-28T14:48:12.345Z,102484.59
2019-03-28T14:50:42.815Z,102486.80
2019-03-28T14:53:13.204Z,102485.45
2019-03-28T14:55:43.560Z,102491.29
2019-03-28T14:58:13.944Z,102490.94
2019-03-28T15:00:51.636Z,102484.61
2019-03-28T15:03:26.952Z,102482.77
2019-03-28T15:05:54.137Z,102481.89
2019-03-28T15:08:24.502Z,102483.47
2019-03-28T15:10:54.931Z,102483.99
2019-03-28T15:13:26.229Z,102488.39
2019-03-28T15:15:56.801Z,102494.25
2019-03-28T15:18:27.167Z,102504.47
2019-03-28T15:20:57.598Z,102496.14
2019-03-28T15:23:28.143Z,102495.27
2019-03-28T15:25:58.624Z,102495.65
2019-03-28T15:28:30.065Z,102497.83
2019-03-28T15:31:00.541Z,102503.00
2019-03-28T15:33:39.526Z,102501.70
2019-03-28T15:36:03.186Z,102501.34
2019-03-28T15:38:34.073Z,102502.30
2019-03-28T15:41:04.456Z,102504.02
2019-03-28T15:43:34.824Z,102510.45
2019-03-28T15:46:06.681Z,102497.59
2019-03-28T15:48:37.928Z,102494.97
2019-03-28T15:51:08.697Z,102497.81
2019-03-28T15:53:39.487Z,102501.27
2019-03-28T15:56:09.910Z,102506.95
2019-03-28T15:58:40.753Z,102501.39
2019-03-28T16:01:11.245Z,102501.44
2019-03-28T16:03:52.350Z,102506.52
2019-03-28T16:06:14.624Z,102500.95
2019-03-28T16:08:45.436Z,102508.86
2019-03-28T16:11:15.893Z,102511.21
2019-03-28T16:13:46.371Z,102511.95
2019-03-28T16:16:16.743Z,102514.19
2019-03-28T16:18:47.150Z,102516.03
2019-03-28T16:21:17.676Z,102516.48
2019-03-28T16:23:48.179Z,102520.19
2019-03-28T16:26:18.606Z,102511.58
2019-03-28T16:28:48.971Z,102512.16
2019-03-28T16:31:19.358Z,102520.19
2019-03-28T16:33:49.976Z,102513.87
2019-03-28T16:36:20.491Z,102515.11
2019-03-28T16:38:50.944Z,102516.73
2019-03-28T16:41:22.371Z,102512.89
2019-03-28T16:43:52.785Z,102522.91
2019-03-28T16:46:23.161Z,102520.23
2019-03-28T16:48:53.578Z,102517.03
2019-03-28T16:51:23.978Z,102523.46
2019-03-28T16:53:54.347Z,102527.54
2019-03-28T16:56:24.752Z,102536.02
2019-03-28T16:58:55.502Z,102538.11
2019-03-28T17:01:26.405Z,102537.86
2019-03-28T17:03:56.903Z,102544.95
2019-03-28T17:06:27.587Z,102551.95
2019-03-28T17:08:58.291Z,102544.19
2019-03-28T17:11:30.560Z,102541.94
2019-03-28T17:14:00.938Z,102540.84
2019-03-28T17:16:31.466Z,102543.83
2019-03-28T17:19:01.820Z,102543.91
2019-03-28T17:21:32.972Z,102546.25
2019-03-28T17:24:04.278Z,102546.89
2019-03-28T17:26:34.687Z,102549.95
2019-03-28T17:29:05.120Z,102550.44
2019-03-28T17:31:36.164Z,102549.66
2019-03-28T17:34:06.529Z,102550.95
2019-03-28T17:36:36.925Z,102558.03
2019-03-28T17:39:07.426Z,102561.73
2019-03-28T17:41:37.939Z,102555.92
2019-03-28T17:44:08.492Z,102561.91
2019-03-28T17:46:39.208Z,102567.23
2019-03-28T17:49:09.936Z,102573.27
2019-03-28T17:51:40.677Z,102575.58
2019-03-28T17:54:11.845Z,102582.17
2019-03-28T17:56:42.599Z,102578.30
2019-03-28T17:59:12.983Z,102578.18
2019-03-28T18:01:43.371Z,102584.67
2019-03-28T18:04:22.662Z,102579.58
2019-03-28T18:06:46.395Z,102580.75
2019-03-28T18:09:16.818Z,102590.13
2019-03-28T18:11:48.859Z,102592.66
2019-03-28T18:14:21.535Z,102595.34
2019-03-28T18:16:52.187Z,102594.97
2019-03-28T18:19:23.092Z,102596.74
2019-03-28T18:22:03.227Z,102599.04
2019-03-28T18:24:26.109Z,102602.25
2019-03-28T18:26:56.832Z,102598.25
2019-03-28T18:29:27.921Z,102604.58
2019-03-28T18:32:00.299Z,102607.02
2019-03-28T18:34:31.431Z,102611.80
2019-03-28T18:37:02.414Z,102609.26
2019-03-28T18:39:33.469Z,102606.97
2019-03-28T18:42:05.129Z,102606.96
2019-03-28T18:44:36.747Z,102610.49
2019-03-28T18:47:08.203Z,102612.35
2019-03-28T18:49:38.665Z,102618.04
2019-03-28T18:52:09.366Z,102617.55
2019-03-28T18:54:39.784Z,102615.81
2019-03-28T18:57:10.222Z,102617.77
2019-03-28T18:59:40.687Z,102614.02
2019-03-28T19:02:11.125Z,102616.56
2019-03-28T19:04:41.518Z,102624.59
2019-03-28T19:07:11.908Z,102622.05
2019-03-28T19:09:42.354Z,102623.08
2019-03-28T19:12:12.858Z,102622.38
2019-03-28T19:14:46.130Z,102619.50
2019-03-28T19:17:16.226Z,102625.53
2019-03-28T19:19:47.236Z,102626.02
2019-03-28T19:22:18.167Z,102627.04
2019-03-28T19:24:49.344Z,102626.61
2019-03-28T19:27:21.210Z,102635.62
2019-03-28T19:29:53.432Z,102639.97
2019-03-28T19:32:23.774Z,102638.50
2019-03-28T19:34:54.225Z,102634.75
2019-03-28T19:37:25.014Z,102628.84
2019-03-28T19:39:56.533Z,102628.68
2019-03-28T19:42:27.743Z,102621.62
2019-03-28T19:44:59.005Z,102621.52
2019-03-28T19:47:30.060Z,102628.57
2019-03-28T19:50:00.454Z,102630.73
2019-03-28T19:52:31.080Z,102637.30
2019-03-28T19:55:02.279Z,102637.30
2019-03-28T19:57:33.126Z,102628.45
2019-03-28T20:00:07.305Z,102631.28
2019-03-28T20:02:38.287Z,102628.94
2019-03-28T20:05:10.399Z,102634.59
2019-03-28T20:07:40.751Z,102629.53
2019-03-28T20:10:16.578Z,102623.17
2019-03-28T20:12:43.264Z,102629.46
2019-03-28T20:15:15.864Z,102631.70
2019-03-28T20:17:47.946Z,102627.04
2019-03-28T20:20:18.516Z,102630.93
2019-03-28T20:22:49.252Z,102629.23
2019-03-28T20:25:20.154Z,102635.69
2019-03-28T20:27:50.989Z,102632.48
2019-03-28T20:30:24.396Z,102634.23
2019-03-28T20:32:55.593Z,102636.31
2019-03-28T20:35:26.539Z,102630.30
2019-03-28T20:37:57.381Z,102636.11
2019-03-28T20:40:29.454Z,102635.34
2019-03-28T20:43:00.793Z,102635.14
2019-03-28T20:45:32.020Z,102646.47
2019-03-28T20:48:02.928Z,102648.34
2019-03-28T20:50:33.437Z,102644.28
2019-03-28T20:53:04.421Z,102646.19
2019-03-28T20:55:36.866Z,102650.16
2019-03-28T20:58:07.764Z,102639.69
2019-03-28T21:00:43.625Z,102646.74
2019-03-28T21:03:15.413Z,102647.15
2019-03-28T21:05:45.996Z,102654.25
2019-03-28T21:08:17.027Z,102648.66
2019-03-28T21:10:47.849Z,102652.59
2019-03-28T21:13:18.222Z,102661.41
2019-03-28T21:15:49.076Z,102662.88
2019-03-28T21:18:19.533Z,102661.55
2019-03-28T21:20:50.084Z,102658.35
2019-03-28T21:23:20.796Z,102662.00
2019-03-28T21:25:51.174Z,102667.45
2019-03-28T21:28:21.555Z,102662.09
2019-03-28T21:30:51.937Z,102651.78
2019-03-28T21:33:23.483Z,102656.45
2019-03-28T21:35:54.726Z,102652.22
2019-03-28T21:38:25.123Z,102661.22
2019-03-28T21:40:55.518Z,102663.40
2019-03-28T21:43:27.152Z,102663.23
2019-03-28T21:45:57.944Z,102671.96
2019-03-28T21:48:28.382Z,102672.30
2019-03-28T21:50:58.753Z,102672.09
2019-03-28T21:53:29.129Z,102672.09
2019-03-28T21:55:59.506Z,102671.14
2019-03-28T21:58:30.114Z,102673.86
2019-03-28T22:01:01.184Z,102673.97
2019-03-28T22:03:31.567Z,102679.23
2019-03-28T22:06:03.797Z,102678.53
2019-03-28T22:08:34.479Z,102674.94
2019-03-28T22:11:04.896Z,102675.16
2019-03-28T22:13:35.301Z,102668.53
2019-03-28T22:16:07.631Z,102667.55
2019-03-28T22:18:37.893Z,102660.98
2019-03-28T22:21:08.366Z,102662.39
2019-03-28T22:23:38.683Z,102667.58
2019-03-28T22:26:09.085Z,102671.52
2019-03-28T22:28:39.919Z,102669.02
2019-03-28T22:31:10.308Z,102664.95
2019-03-28T22:33:41.808Z,102658.98
2019-03-28T22:36:12.298Z,102657.94
2019-03-28T22:38:42.815Z,102652.86
2019-03-28T22:41:13.189Z,102658.45
2019-03-28T22:43:43.567Z,102663.21
2019-03-28T22:48:37.184Z,102654.22
2019-03-28T22:51:10.478Z,102650.90
2019-03-28T22:53:40.860Z,102647.84
2019-03-28T22:56:11.238Z,102651.66
2019-03-28T22:58:41.614Z,102657.19
2019-03-28T23:01:11.980Z,102654.53
2019-03-28T23:03:42.341Z,102658.48
2019-03-28T23:06:12.734Z,102663.48
2019-03-28T23:08:43.127Z,102659.98
2019-03-28T23:11:13.920Z,102661.88
2019-03-28T23:13:44.556Z,102659.84
2019-03-28T23:16:14.927Z,102650.87
2019-03-28T23:18:45.480Z,102651.28
2019-03-28T23:21:16.174Z,102657.20
2019-03-28T23:23:47.087Z,102652.38
2019-03-28T23:26:17.449Z,102650.67
2019-03-28T23:28:47.885Z,102653.19
2019-03-28T23:31:19.020Z,102658.05
2019-03-28T23:33:50.459Z,102655.04
2019-03-28T23:36:20.846Z,102655.58
2019-03-28T23:38:51.249Z,102656.53
2019-03-28T23:41:21.860Z,102656.92
2019-03-28T23:43:52.271Z,102653.97
2019-03-28T23:46:22.636Z,102654.41
2019-03-28T23:48:53.009Z,102655.81
2019-03-28T23:51:23.442Z,102654.16
2019-03-28T23:53:54.619Z,102645.22
2019-03-28T23:56:25.004Z,102639.58
2019-03-28T23:58:55.458Z,102644.69
